sensor_id;sensor_type;location;lat;lon;timestamp;pressure;altitude;pressure_sealevel;temperature;humidity
62800;BME280;48842;51.046;13.796;2023-10-13T00:00:21;100246.44;;;19.77;64.34
62800;BME280;48842;51.046;13.796;2023-10-13T00:02:56;100246.44;;;19.77;64.42
62800;BME280;48842;51.046;13.796;2023-10-13T00:05:26;100244.69;;;19.77;64.42
62800;BME280;48842;51.046;13.796;2023-10-13T00:07:51;100243.75;;;19.78;64.33
62800;BME280;48842;51.046;13.796;2023-10-13T00:10:16;100242.00;;;19.79;64.14
62800;BME280;48842;51.046;13.796;2023-10-13T00:12:44;100241.06;;;19.80;64.41
62800;BME280;48842;51.046;13.796;2023-10-13T00:15:16;100249.03;;;19.80;64.34
62800;BME280;48842;51.046;13.796;2023-10-13T00:17:41;100242.81;;;19.81;64.15
62800;BME280;48842;51.046;13.796;2023-10-13T00:20:07;100248.13;;;19.81;64.29
62800;BME280;48842;51.046;13.796;2023-10-13T00:22:52;100239.22;;;19.82;64.43
62800;BME280;48842;51.046;13.796;2023-10-13T00:25:18;100242.75;;;19.82;64.26
62800;BME280;48842;51.046;13.796;2023-10-13T00:27:51;100243.59;;;19.83;64.11
62800;BME280;48842;51.046;13.796;2023-10-13T00:30:17;100244.53;;;19.82;64.45
62800;BME280;48842;51.046;13.796;2023-10-13T00:32:43;100242.81;;;19.81;64.64
62800;BME280;48842;51.046;13.796;2023-10-13T00:35:13;100246.31;;;19.81;64.45
62800;BME280;48842;51.046;13.796;2023-10-13T00:37:50;100242.81;;;19.81;64.25
62800;BME280;48842;51.046;13.796;2023-10-13T00:40:18;100242.81;;;19.81;64.36
62800;BME280;48842;51.046;13.796;2023-10-13T00:43:04;100245.47;;;19.81;64.44
62800;BME280;48842;51.046;13.796;2023-10-13T00:48:39;100246.31;;;19.81;64.38
62800;BME280;48842;51.046;13.796;2023-10-13T00:51:12;100246.31;;;19.81;64.37
62800;BME280;48842;51.046;13.796;2023-10-13T00:54:00;100246.31;;;19.81;64.29
62800;BME280;48842;51.046;13.796;2023-10-13T00:56:28;100255.19;;;19.82;64.22
62800;BME280;48842;51.046;13.796;2023-10-13T00:58:54;100245.50;;;19.79;63.90
62800;BME280;48842;51.046;13.796;2023-10-13T01:01:22;100258.75;;;19.81;64.17
62800;BME280;48842;51.046;13.796;2023-10-13T01:03:54;100256.09;;;19.81;63.87
62800;BME280;48842;51.046;13.796;2023-10-13T01:06:27;100254.34;;;19.80;63.86
62800;BME280;48842;51.046;13.796;2023-10-13T01:09:01;100250.84;;;19.78;63.88
62800;BME280;48842;51.046;13.796;2023-10-13T01:11:43;100250.84;;;19.79;63.68
62800;BME280;48842;51.046;13.796;2023-10-13T01:14:13;100245.50;;;19.79;63.57
62800;BME280;48842;51.046;13.796;2023-10-13T01:16:42;100251.75;;;19.78;63.74
62800;BME280;48842;51.046;13.796;2023-10-13T01:19:13;100249.09;;;19.77;63.80
62800;BME280;48842;51.046;13.796;2023-10-13T01:21:39;100249.09;;;19.77;63.62
62800;BME280;48842;51.046;13.796;2023-10-13T01:24:09;100251.75;;;19.77;63.74
62800;BME280;48842;51.046;13.796;2023-10-13T01:26:35;100249.09;;;19.77;63.52
62800;BME280;48842;51.046;13.796;2023-10-13T01:29:07;100252.72;;;19.76;63.36
62800;BME280;48842;51.046;13.796;2023-10-13T01:31:43;100250.97;;;19.75;63.53
62800;BME280;48842;51.046;13.796;2023-10-13T01:34:18;100242.09;;;19.74;63.48
62800;BME280;48842;51.046;13.796;2023-10-13T01:36:48;100246.56;;;19.74;63.66
62800;BME280;48842;51.046;13.796;2023-10-13T01:39:16;100247.31;;;19.79;63.81
62800;BME280;48842;51.046;13.796;2023-10-13T01:41:42;100253.63;;;19.75;63.72
62800;BME280;48842;51.046;13.796;2023-10-13T01:44:08;100252.63;;;19.79;63.37
62800;BME280;48842;51.046;13.796;2023-10-13T01:46:37;100252.72;;;19.76;63.48
62800;BME280;48842;51.046;13.796;2023-10-13T01:49:02;100243.00;;;19.75;63.78
62800;BME280;48842;51.046;13.796;2023-10-13T01:51:27;100257.13;;;19.75;63.81
62800;BME280;48842;51.046;13.796;2023-10-13T01:53:54;100257.13;;;19.75;63.90
62800;BME280;48842;51.046;13.796;2023-10-13T01:56:22;100254.44;;;19.77;63.89
62800;BME280;48842;51.046;13.796;2023-10-13T01:58:48;100257.13;;;19.75;63.53
62800;BME280;48842;51.046;13.796;2023-10-13T02:01:14;100252.75;;;19.74;63.63
62800;BME280;48842;51.046;13.796;2023-10-13T02:03:51;100254.47;;;19.75;63.88
62800;BME280;48842;51.046;13.796;2023-10-13T02:06:26;100249.16;;;19.75;63.77
62800;BME280;48842;51.046;13.796;2023-10-13T02:08:57;100252.72;;;19.76;63.88
62800;BME280;48842;51.046;13.796;2023-10-13T02:11:23;100248.38;;;19.73;64.02
62800;BME280;48842;51.046;13.796;2023-10-13T02:13:48;100247.47;;;19.73;63.95
62800;BME280;48842;51.046;13.796;2023-10-13T02:16:16;100244.81;;;19.73;63.74
62800;BME280;48842;51.046;13.796;2023-10-13T02:18:45;100256.16;;;19.78;63.79
62800;BME280;48842;51.046;13.796;2023-10-13T02:21:16;100251.69;;;19.80;63.75
62800;BME280;48842;51.046;13.796;2023-10-13T02:23:41;100249.97;;;19.79;63.70
62800;BME280;48842;51.046;13.796;2023-10-13T02:26:09;100249.91;;;19.80;63.43
62800;BME280;48842;51.046;13.796;2023-10-13T02:28:40;100249.75;;;19.85;63.49
62800;BME280;48842;51.046;13.796;2023-10-13T02:31:05;100243.50;;;19.86;63.70
62800;BME280;48842;51.046;13.796;2023-10-13T02:33:32;100241.88;;;19.82;63.56
62800;BME280;48842;51.046;13.796;2023-10-13T02:36:03;100235.69;;;19.81;63.42
62800;BME280;48842;51.046;13.796;2023-10-13T02:38:30;100238.25;;;19.84;63.25
62800;BME280;48842;51.046;13.796;2023-10-13T02:41:02;100238.19;;;19.86;63.26
62800;BME280;48842;51.046;13.796;2023-10-13T02:43:34;100220.50;;;19.85;63.33
62800;BME280;48842;51.046;13.796;2023-10-13T02:46:00;100217.00;;;19.83;63.87
62800;BME280;48842;51.046;13.796;2023-10-13T02:48:26;100217.00;;;19.83;63.81
62800;BME280;48842;51.046;13.796;2023-10-13T02:50:57;100219.72;;;19.81;63.98
62800;BME280;48842;51.046;13.796;2023-10-13T02:53:26;100220.63;;;19.82;63.74
62800;BME280;48842;51.046;13.796;2023-10-13T02:55:54;100215.31;;;19.82;63.73
62800;BME280;48842;51.046;13.796;2023-10-13T02:58:21;100225.94;;;19.82;63.81
62800;BME280;48842;51.046;13.796;2023-10-13T03:00:46;100216.16;;;19.82;63.70
62800;BME280;48842;51.046;13.796;2023-10-13T03:03:12;100217.91;;;19.83;64.01
62800;BME280;48842;51.046;13.796;2023-10-13T03:05:40;100217.91;;;19.83;63.88
62800;BME280;48842;51.046;13.796;2023-10-13T03:08:07;100216.94;;;19.86;64.25
62800;BME280;48842;51.046;13.796;2023-10-13T03:10:34;100216.88;;;19.87;63.69
62800;BME280;48842;51.046;13.796;2023-10-13T03:13:05;100218.66;;;19.87;63.82
62800;BME280;48842;51.046;13.796;2023-10-13T03:15:33;100207.25;;;19.83;63.88
62800;BME280;48842;51.046;13.796;2023-10-13T03:18:00;100206.38;;;19.83;63.85
62800;BME280;48842;51.046;13.796;2023-10-13T03:20:26;100214.31;;;19.84;63.76
62800;BME280;48842;51.046;13.796;2023-10-13T03:22:58;100215.19;;;19.85;63.95
62800;BME280;48842;51.046;13.796;2023-10-13T03:25:24;100225.88;;;19.83;63.88
62800;BME280;48842;51.046;13.796;2023-10-13T03:27:58;100217.00;;;19.83;64.17
62800;BME280;48842;51.046;13.796;2023-10-13T03:30:23;100216.03;;;19.85;63.90
62800;BME280;48842;51.046;13.796;2023-10-13T03:32:55;100200.97;;;19.86;63.75
62800;BME280;48842;51.046;13.796;2023-10-13T03:35:21;100194.66;;;19.88;63.98
62800;BME280;48842;51.046;13.796;2023-10-13T03:37:53;100174.28;;;19.89;63.91
62800;BME280;48842;51.046;13.796;2023-10-13T03:40:19;100171.56;;;19.91;63.73
62800;BME280;48842;51.046;13.796;2023-10-13T03:42:44;100170.66;;;19.90;63.96
62800;BME280;48842;51.046;13.796;2023-10-13T03:45:22;100168.97;;;19.89;63.84
62800;BME280;48842;51.046;13.796;2023-10-13T03:47:49;100173.28;;;19.92;63.76
62800;BME280;48842;51.046;13.796;2023-10-13T03:50:17;100168.97;;;19.89;63.70
62800;BME280;48842;51.046;13.796;2023-10-13T03:52:47;100173.38;;;19.88;63.71
62800;BME280;48842;51.046;13.796;2023-10-13T03:55:15;100168.97;;;19.89;63.68
62800;BME280;48842;51.046;13.796;2023-10-13T03:57:43;100160.97;;;19.89;63.61
62800;BME280;48842;51.046;13.796;2023-10-13T04:00:11;100159.19;;;19.90;63.77
62800;BME280;48842;51.046;13.796;2023-10-13T04:02:46;100161.78;;;19.91;63.60
62800;BME280;48842;51.046;13.796;2023-10-13T04:05:17;100160.03;;;19.90;63.56
62800;BME280;48842;51.046;13.796;2023-10-13T04:08:04;100153.00;;;19.89;63.40
62800;BME280;48842;51.046;13.796;2023-10-13T04:10:48;100157.38;;;19.90;63.75
62800;BME280;48842;51.046;13.796;2023-10-13T04:13:16;100160.03;;;19.90;63.40
62800;BME280;48842;51.046;13.796;2023-10-13T04:16:00;100158.31;;;19.89;63.58
62800;BME280;48842;51.046;13.796;2023-10-13T04:19:00;100156.56;;;19.88;63.66
62800;BME280;48842;51.046;13.796;2023-10-13T04:21:26;100160.97;;;19.89;63.59
62800;BME280;48842;51.046;13.796;2023-10-13T04:24:11;100158.31;;;19.89;63.51
62800;BME280;48842;51.046;13.796;2023-10-13T04:26:48;100155.66;;;19.89;63.86
62800;BME280;48842;51.046;13.796;2023-10-13T04:29:32;100151.13;;;19.91;63.56
62800;BME280;48842;51.046;13.796;2023-10-13T04:32:22;100155.59;;;19.91;63.60
62800;BME280;48842;51.046;13.796;2023-10-13T04:34:55;100157.44;;;19.88;63.60
62800;BME280;48842;51.046;13.796;2023-10-13T04:37:24;100152.13;;;19.88;63.40
62800;BME280;48842;51.046;13.796;2023-10-13T04:39:58;100151.25;;;19.88;63.57
62800;BME280;48842;51.046;13.796;2023-10-13T04:42:44;100144.19;;;19.87;63.67
62800;BME280;48842;51.046;13.796;2023-10-13T04:45:17;100128.25;;;19.87;63.26
62800;BME280;48842;51.046;13.796;2023-10-13T04:48:01;100130.00;;;19.88;63.13
62800;BME280;48842;51.046;13.796;2023-10-13T04:50:47;100138.88;;;19.87;63.39
62800;BME280;48842;51.046;13.796;2023-10-13T04:53:17;100150.53;;;19.84;63.37
62800;BME280;48842;51.046;13.796;2023-10-13T04:55:57;100140.88;;;19.82;63.45
62800;BME280;48842;51.046;13.796;2023-10-13T04:58:29;100136.47;;;19.81;63.72
62800;BME280;48842;51.046;13.796;2023-10-13T05:01:04;100142.69;;;19.80;63.45
62800;BME280;48842;51.046;13.796;2023-10-13T05:03:48;100133.91;;;19.78;63.22
62800;BME280;48842;51.046;13.796;2023-10-13T05:06:33;100131.28;;;19.76;63.83
62800;BME280;48842;51.046;13.796;2023-10-13T05:09:12;100125.13;;;19.76;63.37
62800;BME280;48842;51.046;13.796;2023-10-13T05:11:56;100131.34;;;19.75;63.48
62800;BME280;48842;51.046;13.796;2023-10-13T05:14:40;100133.19;;;19.73;63.58
62800;BME280;48842;51.046;13.796;2023-10-13T05:17:24;100133.31;;;19.69;63.58
62800;BME280;48842;51.046;13.796;2023-10-13T05:20:08;100130.75;;;19.66;63.65
62800;BME280;48842;51.046;13.796;2023-10-13T05:22:52;100137.06;;;19.64;63.76
62800;BME280;48842;51.046;13.796;2023-10-13T05:25:37;100141.50;;;19.63;63.83
62800;BME280;48842;51.046;13.796;2023-10-13T05:28:21;100147.69;;;19.64;63.55
62800;BME280;48842;51.046;13.796;2023-10-13T05:31:06;100145.09;;;19.62;63.96
62800;BME280;48842;51.046;13.796;2023-10-13T05:33:50;100146.88;;;19.62;63.83
62800;BME280;48842;51.046;13.796;2023-10-13T05:36:34;100157.44;;;19.63;63.93
62800;BME280;48842;51.046;13.796;2023-10-13T05:39:18;100156.47;;;19.66;63.93
62800;BME280;48842;51.046;13.796;2023-10-13T05:42:02;100166.19;;;19.67;63.85
62800;BME280;48842;51.046;13.796;2023-10-13T05:44:46;100168.75;;;19.70;63.51
62800;BME280;48842;51.046;13.796;2023-10-13T05:47:22;100172.19;;;19.72;63.57
62800;BME280;48842;51.046;13.796;2023-10-13T05:50:04;100175.66;;;19.74;63.52
62800;BME280;48842;51.046;13.796;2023-10-13T05:52:48;100165.91;;;19.75;63.36
62800;BME280;48842;51.046;13.796;2023-10-13T05:55:26;100162.34;;;19.76;63.34
62800;BME280;48842;51.046;13.796;2023-10-13T05:58:11;100164.91;;;19.79;63.54
62800;BME280;48842;51.046;13.796;2023-10-13T06:00:55;100171.88;;;19.81;63.31
62800;BME280;48842;51.046;13.796;2023-10-13T06:03:39;100175.25;;;19.86;63.08
62800;BME280;48842;51.046;13.796;2023-10-13T06:06:23;100168.97;;;19.89;63.12
62800;BME280;48842;51.046;13.796;2023-10-13T06:09:07;100178.56;;;19.93;63.05
62800;BME280;48842;51.046;13.796;2023-10-13T06:11:51;100175.78;;;19.96;63.23
62800;BME280;48842;51.046;13.796;2023-10-13T06:14:35;100182.69;;;20.00;62.63
62800;BME280;48842;51.046;13.796;2023-10-13T06:17:19;100177.28;;;20.03;62.38
62800;BME280;48842;51.046;13.796;2023-10-13T06:20:04;100175.38;;;20.07;62.58
62800;BME280;48842;51.046;13.796;2023-10-13T06:22:49;100174.31;;;20.11;62.67
62800;BME280;48842;51.046;13.796;2023-10-13T06:25:32;100180.38;;;20.15;62.34
62800;BME280;48842;51.046;13.796;2023-10-13T06:28:16;100180.25;;;20.18;62.79
62800;BME280;48842;51.046;13.796;2023-10-13T06:31:03;100174.84;;;20.21;62.29
62800;BME280;48842;51.046;13.796;2023-10-13T06:33:32;100174.72;;;20.24;62.23
62800;BME280;48842;51.046;13.796;2023-10-13T06:35:59;100178.13;;;20.28;62.31
62800;BME280;48842;51.046;13.796;2023-10-13T06:38:25;100172.59;;;20.32;62.02
62800;BME280;48842;51.046;13.796;2023-10-13T06:40:57;100173.38;;;20.36;61.97
62800;BME280;48842;51.046;13.796;2023-10-13T06:43:22;100166.19;;;20.38;62.18
62800;BME280;48842;51.046;13.796;2023-10-13T06:45:49;100169.59;;;20.42;61.97
62800;BME280;48842;51.046;13.796;2023-10-13T06:48:28;100163.22;;;20.46;61.65
62800;BME280;48842;51.046;13.796;2023-10-13T06:50:59;100156.84;;;20.50;61.62
62800;BME280;48842;51.046;13.796;2023-10-13T06:53:32;100158.44;;;20.54;61.67
62800;BME280;48842;51.046;13.796;2023-10-13T06:56:06;100153.94;;;20.56;61.77
62800;BME280;48842;51.046;13.796;2023-10-13T06:58:32;100157.28;;;20.61;61.38
62800;BME280;48842;51.046;13.796;2023-10-13T07:00:58;100151.72;;;20.67;61.36
62800;BME280;48842;51.046;13.796;2023-10-13T07:03:24;100153.34;;;20.71;61.64
62800;BME280;48842;51.046;13.796;2023-10-13T07:05:50;100163.72;;;20.78;61.25
62800;BME280;48842;51.046;13.796;2023-10-13T07:08:17;100160.94;;;20.81;60.95
62800;BME280;48842;51.046;13.796;2023-10-13T07:10:52;100154.56;;;20.85;61.01
62800;BME280;48842;51.046;13.796;2023-10-13T07:13:23;100163.25;;;20.90;61.07
62800;BME280;48842;51.046;13.796;2023-10-13T07:15:53;100156.84;;;20.94;60.71
62800;BME280;48842;51.046;13.796;2023-10-13T07:18:23;100157.50;;;20.99;60.75
62800;BME280;48842;51.046;13.796;2023-10-13T07:20:48;100155.53;;;21.04;60.66
62800;BME280;48842;51.046;13.796;2023-10-13T07:23:14;100156.25;;;21.08;60.63
62800;BME280;48842;51.046;13.796;2023-10-13T07:25:51;100157.00;;;21.12;60.51
62800;BME280;48842;51.046;13.796;2023-10-13T07:28:16;100149.81;;;21.14;60.51
62800;BME280;48842;51.046;13.796;2023-10-13T07:30:42;100145.19;;;21.17;60.84
62800;BME280;48842;51.046;13.796;2023-10-13T07:33:17;100148.53;;;21.22;60.58
62800;BME280;48842;51.046;13.796;2023-10-13T07:35:45;100144.00;;;21.24;60.33
62800;BME280;48842;51.046;13.796;2023-10-13T07:38:15;100146.56;;;21.27;60.19
62800;BME280;48842;51.046;13.796;2023-10-13T07:40:41;100139.34;;;21.30;60.29
62800;BME280;48842;51.046;13.796;2023-10-13T07:43:08;100140.88;;;21.35;59.94
62800;BME280;48842;51.046;13.796;2023-10-13T07:45:37;100141.53;;;21.40;60.10
62800;BME280;48842;51.046;13.796;2023-10-13T07:48:11;100136.06;;;21.43;60.08
62800;BME280;48842;51.046;13.796;2023-10-13T07:51:08;100128.81;;;21.47;59.93
62800;BME280;48842;51.046;13.796;2023-10-13T07:53:39;100126.78;;;21.54;59.89
62800;BME280;48842;51.046;13.796;2023-10-13T07:56:06;100127.28;;;21.62;59.54
62800;BME280;48842;51.046;13.796;2023-10-13T07:58:33;100115.47;;;21.68;59.35
62800;BME280;48842;51.046;13.796;2023-10-13T08:00:59;100107.25;;;21.72;59.49
62800;BME280;48842;51.046;13.796;2023-10-13T08:03:35;100102.72;;;21.74;59.33
62800;BME280;48842;51.046;13.796;2023-10-13T08:06:08;100101.69;;;21.77;59.32
62800;BME280;48842;51.046;13.796;2023-10-13T08:08:37;100106.03;;;21.79;59.38
62800;BME280;48842;51.046;13.796;2023-10-13T08:11:09;100104.03;;;21.85;59.28
62800;BME280;48842;51.046;13.796;2023-10-13T08:13:54;100094.81;;;21.92;59.19
62800;BME280;48842;51.046;13.796;2023-10-13T08:16:22;100095.38;;;21.99;58.98
62800;BME280;48842;51.046;13.796;2023-10-13T08:18:49;100098.69;;;22.04;59.12
62800;BME280;48842;51.046;13.796;2023-10-13T08:21:19;100088.66;;;22.09;58.96
62800;BME280;48842;51.046;13.796;2023-10-13T08:23:56;100097.22;;;22.16;58.82
62800;BME280;48842;51.046;13.796;2023-10-13T08:26:23;100085.47;;;22.20;58.79
62800;BME280;48842;51.046;13.796;2023-10-13T08:28:58;100088.91;;;22.22;58.78
62800;BME280;48842;51.046;13.796;2023-10-13T08:31:52;100090.59;;;22.24;58.68
62800;BME280;48842;51.046;13.796;2023-10-13T08:34:30;100085.88;;;22.29;58.57
62800;BME280;48842;51.046;13.796;2023-10-13T08:37:06;100083.81;;;22.36;58.59
62800;BME280;48842;51.046;13.796;2023-10-13T08:39:57;100087.91;;;22.43;58.54
62800;BME280;48842;51.046;13.796;2023-10-13T08:42:33;100081.31;;;22.51;58.67
62800;BME280;48842;51.046;13.796;2023-10-13T08:45:18;100078.19;;;22.60;58.47
62800;BME280;48842;51.046;13.796;2023-10-13T08:48:07;100084.88;;;22.69;58.37
62800;BME280;48842;51.046;13.796;2023-10-13T08:50:45;100077.41;;;22.75;58.23
62800;BME280;48842;51.046;13.796;2023-10-13T08:53:26;100082.34;;;22.83;57.77
62800;BME280;48842;51.046;13.796;2023-10-13T08:56:05;100079.38;;;22.89;57.67
62800;BME280;48842;51.046;13.796;2023-10-13T08:58:40;100079.13;;;22.94;57.48
62800;BME280;48842;51.046;13.796;2023-10-13T09:01:22;100076.53;;;22.92;57.37
62800;BME280;48842;51.046;13.796;2023-10-13T09:04:11;100076.78;;;22.88;57.41
62800;BME280;48842;51.046;13.796;2023-10-13T09:06:59;100072.53;;;22.83;57.52
62800;BME280;48842;51.046;13.796;2023-10-13T09:09:24;100071.75;;;22.81;57.50
62800;BME280;48842;51.046;13.796;2023-10-13T09:11:59;100070.97;;;22.79;57.67
62800;BME280;48842;51.046;13.796;2023-10-13T09:14:38;100065.69;;;22.78;57.87
62800;BME280;48842;51.046;13.796;2023-10-13T09:17:09;100065.63;;;22.79;57.89
62800;BME280;48842;51.046;13.796;2023-10-13T09:19:48;100069.16;;;22.80;57.73
62800;BME280;48842;51.046;13.796;2023-10-13T09:22:24;100062.00;;;22.80;57.73
62800;BME280;48842;51.046;13.796;2023-10-13T09:24:54;100058.41;;;22.81;57.66
62800;BME280;48842;51.046;13.796;2023-10-13T09:27:24;100056.50;;;22.83;57.59
62800;BME280;48842;51.046;13.796;2023-10-13T09:29:59;100065.31;;;22.86;57.65
62800;BME280;48842;51.046;13.796;2023-10-13T09:32:44;100056.22;;;22.90;57.40
62800;BME280;48842;51.046;13.796;2023-10-13T09:37:43;100057.44;;;23.00;57.08
62800;BME280;48842;51.046;13.796;2023-10-13T09:40:13;100050.03;;;23.05;57.16
62800;BME280;48842;51.046;13.796;2023-10-13T09:42:53;100051.69;;;23.08;57.21
62800;BME280;48842;51.046;13.796;2023-10-13T09:45:27;100061.44;;;23.09;57.26
62800;BME280;48842;51.046;13.796;2023-10-13T09:47:55;100063.16;;;23.10;57.23
62800;BME280;48842;51.046;13.796;2023-10-13T09:50:32;100056.97;;;23.09;57.23
62800;BME280;48842;51.046;13.796;2023-10-13T09:53:04;100046.44;;;23.06;57.32
62800;BME280;48842;51.046;13.796;2023-10-13T09:55:36;100051.94;;;23.03;57.63
62800;BME280;48842;51.046;13.796;2023-10-13T09:58:06;100049.44;;;23.00;57.55
62800;BME280;48842;51.046;13.796;2023-10-13T10:00:42;100054.94;;;22.97;57.51
62800;BME280;48842;51.046;13.796;2023-10-13T10:03:32;100043.38;;;22.96;57.46
62800;BME280;48842;51.046;13.796;2023-10-13T10:06:02;100046.03;;;22.96;57.50
62800;BME280;48842;51.046;13.796;2023-10-13T10:08:33;100046.03;;;22.96;57.31
62800;BME280;48842;51.046;13.796;2023-10-13T10:16:51;100039.13;;;22.92;57.36
62800;BME280;48842;51.046;13.796;2023-10-13T10:19:18;100036.38;;;22.94;57.18
62800;BME280;48842;51.046;13.796;2023-10-13T10:21:43;100028.53;;;22.91;57.23
62800;BME280;48842;51.046;13.796;2023-10-13T10:24:21;100023.25;;;22.89;57.45
62800;BME280;48842;51.046;13.796;2023-10-13T10:26:55;100021.59;;;22.87;57.63
62800;BME280;48842;51.046;13.796;2023-10-13T10:29:21;100013.75;;;22.83;57.66
62800;BME280;48842;51.046;13.796;2023-10-13T10:31:46;100023.75;;;22.80;57.89
62800;BME280;48842;51.046;13.796;2023-10-13T10:34:16;100014.16;;;22.76;57.89
62800;BME280;48842;51.046;13.796;2023-10-13T10:36:53;100013.41;;;22.74;58.11
62800;BME280;48842;51.046;13.796;2023-10-13T10:39:18;100009.06;;;22.71;58.10
62800;BME280;48842;51.046;13.796;2023-10-13T10:41:44;100013.56;;;22.71;58.29
62800;BME280;48842;51.046;13.796;2023-10-13T10:44:19;100009.25;;;22.68;58.25
62800;BME280;48842;51.046;13.796;2023-10-13T10:47:12;100005.75;;;22.66;58.22
62800;BME280;48842;51.046;13.796;2023-10-13T10:49:45;100000.44;;;22.66;58.39
62800;BME280;48842;51.046;13.796;2023-10-13T10:52:10;99987.06;;;22.66;58.39
62800;BME280;48842;51.046;13.796;2023-10-13T10:54:44;99993.38;;;22.65;58.36
62800;BME280;48842;51.046;13.796;2023-10-13T10:57:09;99987.06;;;22.66;58.51
62800;BME280;48842;51.046;13.796;2023-10-13T10:59:42;99979.88;;;22.68;58.56
62800;BME280;48842;51.046;13.796;2023-10-13T11:02:07;99977.97;;;22.70;58.48
62800;BME280;48842;51.046;13.796;2023-10-13T11:04:34;99983.22;;;22.72;58.61
62800;BME280;48842;51.046;13.796;2023-10-13T11:07:00;99975.13;;;22.73;58.77
62800;BME280;48842;51.046;13.796;2023-10-13T11:09:35;99973.44;;;22.72;58.84
62800;BME280;48842;51.046;13.796;2023-10-13T11:12:12;99977.72;;;22.75;58.72
62800;BME280;48842;51.046;13.796;2023-10-13T11:14:45;99972.22;;;22.78;58.62
62800;BME280;48842;51.046;13.796;2023-10-13T11:17:22;99959.66;;;22.80;58.81
62800;BME280;48842;51.046;13.796;2023-10-13T11:20:13;99954.31;;;22.80;58.71
62800;BME280;48842;51.046;13.796;2023-10-13T11:22:49;99951.56;;;22.81;58.60
62800;BME280;48842;51.046;13.796;2023-10-13T11:27:55;99940.88;;;22.81;58.74
62800;BME280;48842;51.046;13.796;2023-10-13T11:30:22;99946.22;;;22.81;58.92
62800;BME280;48842;51.046;13.796;2023-10-13T11:32:58;99949.06;;;22.78;59.10
62800;BME280;48842;51.046;13.796;2023-10-13T11:35:24;99935.69;;;22.78;59.20
62800;BME280;48842;51.046;13.796;2023-10-13T11:37:50;99935.69;;;22.78;59.50
62800;BME280;48842;51.046;13.796;2023-10-13T11:40:34;99932.09;;;22.79;59.73
62800;BME280;48842;51.046;13.796;2023-10-13T11:43:11;99928.63;;;22.77;59.66
62800;BME280;48842;51.046;13.796;2023-10-13T11:45:49;99933.97;;;22.77;59.59
62800;BME280;48842;51.046;13.796;2023-10-13T11:48:42;99929.56;;;22.76;59.76
62800;BME280;48842;51.046;13.796;2023-10-13T11:51:10;99921.53;;;22.76;59.68
62800;BME280;48842;51.046;13.796;2023-10-13T11:53:45;99929.41;;;22.79;59.80
62800;BME280;48842;51.046;13.796;2023-10-13T11:56:13;99923.19;;;22.79;59.58
62800;BME280;48842;51.046;13.796;2023-10-13T11:58:39;99920.53;;;22.79;59.65
62800;BME280;48842;51.046;13.796;2023-10-13T12:01:05;99918.78;;;22.78;59.83
62800;BME280;48842;51.046;13.796;2023-10-13T12:03:43;99918.88;;;22.76;59.85
62800;BME280;48842;51.046;13.796;2023-10-13T12:06:28;99905.78;;;22.72;59.67
62800;BME280;48842;51.046;13.796;2023-10-13T12:09:03;99897.09;;;22.68;59.77
62800;BME280;48842;51.046;13.796;2023-10-13T12:11:45;99899.91;;;22.65;60.00
62800;BME280;48842;51.046;13.796;2023-10-13T12:14:16;99893.78;;;22.63;59.81
62800;BME280;48842;51.046;13.796;2023-10-13T12:16:47;99885.78;;;22.63;59.74
62800;BME280;48842;51.046;13.796;2023-10-13T12:19:20;99880.59;;;22.60;59.92
62800;BME280;48842;51.046;13.796;2023-10-13T12:21:51;99881.53;;;22.59;59.97
62800;BME280;48842;51.046;13.796;2023-10-13T12:24:26;99878.09;;;22.57;59.93
62800;BME280;48842;51.046;13.796;2023-10-13T12:27:01;99884.44;;;22.54;60.04
62800;BME280;48842;51.046;13.796;2023-10-13T12:29:27;99880.94;;;22.54;59.96
62800;BME280;48842;51.046;13.796;2023-10-13T12:31:56;99875.59;;;22.54;59.68
62800;BME280;48842;51.046;13.796;2023-10-13T12:34:34;99868.53;;;22.53;59.81
62800;BME280;48842;51.046;13.796;2023-10-13T12:37:32;99868.53;;;22.53;59.66
62800;BME280;48842;51.046;13.796;2023-10-13T12:40:17;99868.59;;;22.51;59.67
62800;BME280;48842;51.046;13.796;2023-10-13T12:43:02;99861.53;;;22.50;59.79
62800;BME280;48842;51.046;13.796;2023-10-13T12:45:47;99852.66;;;22.49;59.67
62800;BME280;48842;51.046;13.796;2023-10-13T12:48:32;99862.50;;;22.49;59.61
62800;BME280;48842;51.046;13.796;2023-10-13T12:51:17;99861.47;;;22.52;59.54
62800;BME280;48842;51.046;13.796;2023-10-13T12:53:52;99853.53;;;22.50;59.51
62800;BME280;48842;51.046;13.796;2023-10-13T12:56:19;99852.59;;;22.51;59.22
62800;BME280;48842;51.046;13.796;2023-10-13T12:58:51;99849.81;;;22.53;59.12
62800;BME280;48842;51.046;13.796;2023-10-13T13:01:25;99841.56;;;22.57;58.97
62800;BME280;48842;51.046;13.796;2023-10-13T13:03:52;99829.00;;;22.59;58.75
62800;BME280;48842;51.046;13.796;2023-10-13T13:06:23;99822.66;;;22.62;58.81
62800;BME280;48842;51.046;13.796;2023-10-13T13:11:21;99808.16;;;22.66;58.67
62800;BME280;48842;51.046;13.796;2023-10-13T13:13:46;99808.16;;;22.66;58.65
62800;BME280;48842;51.046;13.796;2023-10-13T13:16:16;99802.81;;;22.66;58.85
62800;BME280;48842;51.046;13.796;2023-10-13T13:18:51;99797.41;;;22.67;59.63
62800;BME280;48842;51.046;13.796;2023-10-13T13:21:16;99793.88;;;22.67;59.75
62800;BME280;48842;51.046;13.796;2023-10-13T13:23:52;99793.03;;;22.66;59.38
62800;BME280;48842;51.046;13.796;2023-10-13T13:26:21;99784.94;;;22.68;59.11
62800;BME280;48842;51.046;13.796;2023-10-13T13:28:47;99798.03;;;22.73;59.23
62800;BME280;48842;51.046;13.796;2023-10-13T13:31:20;99787.06;;;22.77;59.80